SDM1029 ULAA-ULLI
Flight info
| Callsign | SDM1029 |
|---|---|
| Flight time | 1h 15m |
| Altitude | 38000 |
| Route | MAKOG3K MAKOG T821 ROGID M856 GIKUR T458 BEPOL BEPOL1B |
| Aircraft | A319/M-RA73220/LB1 |
Departure
| Time | 2026-04-24 08:55 |
|---|---|
| Airport | Talagi Airport (ULAA) |
Arrival
| Time | 2026-04-24 10:11 |
|---|---|
| Airport | Pulkovo Airport (ULLI) |
| Time | Latitude | Longitude | Altitude | Speed | Heading |
|---|---|---|---|---|---|
| 2026-04-24 08:28 | 64.59661 | 40.71388 | 40 ft | 0 kts | 186° |
| 2026-04-24 08:47 | 64.59670 | 40.71390 | 40 ft | 4 kts | 190° |
| 2026-04-24 08:47 | 64.59694 | 40.71408 | 38 ft | 4 kts | 214° |
| 2026-04-24 08:47 | 64.59712 | 40.71451 | 38 ft | 4 kts | 249° |
| 2026-04-24 08:48 | 64.59716 | 40.71492 | 39 ft | 0 kts | 276° |
| 2026-04-24 08:49 | 64.59716 | 40.71491 | 39 ft | 0 kts | 276° |
| 2026-04-24 08:50 | 64.59722 | 40.71355 | 40 ft | 16 kts | 276° |
| 2026-04-24 08:50 | 64.59791 | 40.71277 | 40 ft | 11 kts | 7° |
| 2026-04-24 08:50 | 64.59830 | 40.71366 | 39 ft | 7 kts | 90° |
| 2026-04-24 08:50 | 64.59824 | 40.71500 | 40 ft | 11 kts | 96° |
| 2026-04-24 08:51 | 64.59813 | 40.71723 | 40 ft | 14 kts | 96° |
| 2026-04-24 08:51 | 64.59804 | 40.71921 | 40 ft | 12 kts | 96° |
| 2026-04-24 08:51 | 64.59797 | 40.72054 | 40 ft | 13 kts | 96° |
| 2026-04-24 08:51 | 64.59785 | 40.72298 | 40 ft | 18 kts | 96° |
| 2026-04-24 08:52 | 64.59768 | 40.72642 | 40 ft | 22 kts | 97° |
| 2026-04-24 08:52 | 64.59752 | 40.72971 | 40 ft | 19 kts | 96° |
| 2026-04-24 08:52 | 64.59738 | 40.73270 | 39 ft | 19 kts | 96° |
| 2026-04-24 08:52 | 64.59722 | 40.73590 | 40 ft | 21 kts | 97° |
| 2026-04-24 08:53 | 64.59697 | 40.73929 | 40 ft | 22 kts | 97° |
| 2026-04-24 08:53 | 64.59702 | 40.74163 | 38 ft | 11 kts | 43° |
| 2026-04-24 08:53 | 64.59762 | 40.74195 | 40 ft | 8 kts | 6° |
| 2026-04-24 08:53 | 64.59806 | 40.74206 | 40 ft | 5 kts | 6° |
| 2026-04-24 08:54 | 64.59846 | 40.74217 | 39 ft | 9 kts | 7° |
| 2026-04-24 08:54 | 64.59910 | 40.74095 | 35 ft | 14 kts | 279° |
| 2026-04-24 08:54 | 64.59913 | 40.74015 | 33 ft | 2 kts | 276° |
| 2026-04-24 08:54 | 64.59932 | 40.73626 | 35 ft | 65 kts | 276° |
| 2026-04-24 08:55 | 64.60019 | 40.71873 | 43 ft | 149 kts | 277° |
| 2026-04-24 08:55 | 64.60139 | 40.69387 | 820 ft | 156 kts | 275° |
| 2026-04-24 08:55 | 64.60282 | 40.66587 | 1382 ft | 191 kts | 277° |
| 2026-04-24 08:55 | 64.60450 | 40.63302 | 1998 ft | 216 kts | 276° |
| 2026-04-24 08:56 | 64.60610 | 40.59642 | 2715 ft | 238 kts | 275° |
| 2026-04-24 08:56 | 64.60795 | 40.55710 | 3598 ft | 249 kts | 275° |
| 2026-04-24 08:56 | 64.60996 | 40.51663 | 4638 ft | 252 kts | 275° |
| 2026-04-24 08:56 | 64.61181 | 40.47581 | 5711 ft | 255 kts | 272° |
| 2026-04-24 08:57 | 64.60861 | 40.43536 | 6624 ft | 260 kts | 243° |
| 2026-04-24 08:57 | 64.59813 | 40.40103 | 7666 ft | 262 kts | 228° |
| 2026-04-24 08:57 | 64.58525 | 40.37052 | 8734 ft | 265 kts | 224° |
| 2026-04-24 08:57 | 64.57174 | 40.34077 | 9687 ft | 272 kts | 224° |
| 2026-04-24 08:58 | 64.55773 | 40.30932 | 10082 ft | 295 kts | 225° |
| 2026-04-24 08:58 | 64.54298 | 40.27460 | 10726 ft | 306 kts | 226° |
| 2026-04-24 08:58 | 64.52820 | 40.23831 | 11586 ft | 311 kts | 227° |
| 2026-04-24 08:58 | 64.51348 | 40.20095 | 12442 ft | 316 kts | 228° |
| 2026-04-24 08:59 | 64.49870 | 40.16280 | 13312 ft | 320 kts | 228° |
| 2026-04-24 08:59 | 64.48373 | 40.12392 | 14072 ft | 324 kts | 228° |
| 2026-04-24 08:59 | 64.46866 | 40.08475 | 14867 ft | 327 kts | 228° |
| 2026-04-24 08:59 | 64.45344 | 40.04514 | 15688 ft | 330 kts | 228° |
| 2026-04-24 09:00 | 64.43811 | 40.00535 | 16506 ft | 332 kts | 227° |
| 2026-04-24 09:00 | 64.42266 | 39.96547 | 17327 ft | 334 kts | 227° |
| 2026-04-24 09:00 | 64.40705 | 39.92545 | 18108 ft | 336 kts | 227° |
| 2026-04-24 09:00 | 64.39132 | 39.88522 | 18788 ft | 339 kts | 227° |
| 2026-04-24 09:01 | 64.37543 | 39.84458 | 19478 ft | 342 kts | 227° |
| 2026-04-24 09:01 | 64.35943 | 39.80366 | 20152 ft | 345 kts | 227° |
| 2026-04-24 09:01 | 64.34326 | 39.76236 | 20819 ft | 348 kts | 227° |
| 2026-04-24 09:01 | 64.32691 | 39.72081 | 21459 ft | 351 kts | 227° |
| 2026-04-24 09:02 | 64.31040 | 39.67887 | 22106 ft | 355 kts | 227° |
| 2026-04-24 09:02 | 64.29372 | 39.63655 | 22754 ft | 358 kts | 226° |
| 2026-04-24 09:02 | 64.27688 | 39.59393 | 23301 ft | 362 kts | 227° |
| 2026-04-24 09:02 | 64.25982 | 39.55087 | 23742 ft | 366 kts | 227° |
| 2026-04-24 09:03 | 64.24252 | 39.50729 | 24181 ft | 371 kts | 227° |
| 2026-04-24 09:03 | 64.22498 | 39.46325 | 24596 ft | 376 kts | 227° |
| 2026-04-24 09:03 | 64.20720 | 39.41866 | 25012 ft | 381 kts | 227° |
| 2026-04-24 09:03 | 64.18914 | 39.37346 | 25404 ft | 386 kts | 227° |
| 2026-04-24 09:04 | 64.17088 | 39.32778 | 25781 ft | 391 kts | 227° |
| 2026-04-24 09:04 | 64.15238 | 39.28154 | 26162 ft | 396 kts | 228° |
| 2026-04-24 09:04 | 64.13367 | 39.23487 | 26583 ft | 400 kts | 228° |
| 2026-04-24 09:04 | 64.11474 | 39.18778 | 26916 ft | 405 kts | 229° |
| 2026-04-24 09:05 | 64.09548 | 39.14007 | 27243 ft | 410 kts | 229° |
| 2026-04-24 09:05 | 64.07600 | 39.09195 | 27577 ft | 415 kts | 229° |
| 2026-04-24 09:05 | 64.05693 | 39.04213 | 27916 ft | 418 kts | 233° |
| 2026-04-24 09:05 | 64.03905 | 38.98945 | 28265 ft | 422 kts | 234° |
| 2026-04-24 09:06 | 64.02098 | 38.93626 | 28582 ft | 427 kts | 234° |
| 2026-04-24 09:06 | 64.00272 | 38.88245 | 28923 ft | 431 kts | 234° |
| 2026-04-24 09:06 | 63.98428 | 38.82808 | 29248 ft | 436 kts | 235° |
| 2026-04-24 09:06 | 63.96565 | 38.77323 | 29544 ft | 440 kts | 235° |
| 2026-04-24 09:07 | 63.94706 | 38.71865 | 29816 ft | 444 kts | 235° |
| 2026-04-24 09:07 | 63.92803 | 38.66306 | 30075 ft | 447 kts | 234° |
| 2026-04-24 09:07 | 63.88947 | 38.55124 | 30599 ft | 452 kts | 234° |
| 2026-04-24 09:08 | 63.86999 | 38.49505 | 30854 ft | 454 kts | 234° |
| 2026-04-24 09:08 | 63.85040 | 38.43851 | 31105 ft | 457 kts | 234° |
| 2026-04-24 09:08 | 63.83074 | 38.38191 | 31415 ft | 457 kts | 234° |
| 2026-04-24 09:08 | 63.81101 | 38.32534 | 31754 ft | 457 kts | 234° |
| 2026-04-24 09:09 | 63.79129 | 38.26889 | 32079 ft | 457 kts | 234° |
| 2026-04-24 09:09 | 63.77157 | 38.21248 | 32382 ft | 457 kts | 235° |
| 2026-04-24 09:09 | 63.75181 | 38.15602 | 32682 ft | 458 kts | 235° |
| 2026-04-24 09:09 | 63.73204 | 38.09974 | 32980 ft | 458 kts | 234° |
| 2026-04-24 09:10 | 63.71219 | 38.04352 | 33265 ft | 458 kts | 234° |
| 2026-04-24 09:10 | 63.69225 | 37.98729 | 33526 ft | 458 kts | 234° |
| 2026-04-24 09:10 | 63.67234 | 37.93126 | 33731 ft | 459 kts | 234° |
| 2026-04-24 09:10 | 63.65238 | 37.87521 | 33925 ft | 459 kts | 234° |
| 2026-04-24 09:11 | 63.63237 | 37.81910 | 34132 ft | 459 kts | 234° |
| 2026-04-24 09:11 | 63.61241 | 37.76315 | 34324 ft | 459 kts | 234° |
| 2026-04-24 09:11 | 63.59241 | 37.70720 | 34510 ft | 459 kts | 234° |
| 2026-04-24 09:11 | 63.57241 | 37.65141 | 34658 ft | 459 kts | 234° |
| 2026-04-24 09:12 | 63.55234 | 37.59547 | 34785 ft | 460 kts | 234° |
| 2026-04-24 09:12 | 63.53222 | 37.53957 | 34946 ft | 461 kts | 234° |
| 2026-04-24 09:12 | 63.51204 | 37.48369 | 35103 ft | 461 kts | 234° |
| 2026-04-24 09:12 | 63.49208 | 37.42866 | 35255 ft | 461 kts | 234° |
| 2026-04-24 09:13 | 63.47185 | 37.37307 | 35408 ft | 461 kts | 234° |
| 2026-04-24 09:13 | 63.45156 | 37.31748 | 35562 ft | 461 kts | 234° |
| 2026-04-24 09:13 | 63.43128 | 37.26201 | 35707 ft | 461 kts | 234° |
| 2026-04-24 09:13 | 63.41098 | 37.20653 | 35852 ft | 461 kts | 234° |
| 2026-04-24 09:14 | 63.39065 | 37.15120 | 35990 ft | 461 kts | 234° |
| 2026-04-24 09:14 | 63.37030 | 37.09587 | 36111 ft | 461 kts | 234° |
| 2026-04-24 09:14 | 63.32962 | 36.98556 | 36328 ft | 461 kts | 234° |
| 2026-04-24 09:15 | 63.30926 | 36.93053 | 36453 ft | 460 kts | 234° |
| 2026-04-24 09:15 | 63.28892 | 36.87566 | 36578 ft | 460 kts | 234° |
| 2026-04-24 09:15 | 63.26855 | 36.82089 | 36701 ft | 459 kts | 234° |
| 2026-04-24 09:15 | 63.24818 | 36.76649 | 36830 ft | 458 kts | 234° |
| 2026-04-24 09:16 | 63.22781 | 36.71218 | 36949 ft | 457 kts | 234° |
| 2026-04-24 09:16 | 63.20675 | 36.65918 | 37079 ft | 459 kts | 227° |
| 2026-04-24 09:16 | 63.18321 | 36.61142 | 37206 ft | 459 kts | 225° |
| 2026-04-24 09:16 | 63.15953 | 36.56413 | 37331 ft | 457 kts | 225° |
| 2026-04-24 09:17 | 63.13597 | 36.51711 | 37493 ft | 455 kts | 225° |
| 2026-04-24 09:17 | 63.11246 | 36.47031 | 37551 ft | 455 kts | 225° |
| 2026-04-24 09:17 | 63.06522 | 36.37660 | 37551 ft | 457 kts | 225° |
| 2026-04-24 09:18 | 63.01770 | 36.28282 | 37563 ft | 460 kts | 225° |
| 2026-04-24 09:18 | 62.96989 | 36.18897 | 37559 ft | 461 kts | 225° |
| 2026-04-24 09:19 | 62.92188 | 36.09492 | 37562 ft | 463 kts | 225° |
| 2026-04-24 09:19 | 62.87360 | 36.00099 | 37543 ft | 464 kts | 225° |
| 2026-04-24 09:20 | 62.82550 | 35.90682 | 37554 ft | 464 kts | 225° |
| 2026-04-24 09:20 | 62.77753 | 35.81247 | 37564 ft | 464 kts | 225° |
| 2026-04-24 09:21 | 62.72943 | 35.71840 | 37566 ft | 464 kts | 225° |
| 2026-04-24 09:21 | 62.68119 | 35.62468 | 37573 ft | 464 kts | 225° |
| 2026-04-24 09:22 | 62.63291 | 35.53146 | 37551 ft | 464 kts | 225° |
| 2026-04-24 09:22 | 62.58453 | 35.43830 | 37562 ft | 464 kts | 225° |
| 2026-04-24 09:23 | 62.53613 | 35.34558 | 37568 ft | 464 kts | 225° |
| 2026-04-24 09:23 | 62.48759 | 35.25319 | 37586 ft | 464 kts | 225° |
| 2026-04-24 09:24 | 62.43928 | 35.16171 | 37554 ft | 465 kts | 225° |
| 2026-04-24 09:24 | 62.39059 | 35.06987 | 37556 ft | 465 kts | 225° |
| 2026-04-24 09:25 | 62.34158 | 34.97867 | 37564 ft | 466 kts | 224° |
| 2026-04-24 09:25 | 62.29222 | 34.88824 | 37572 ft | 466 kts | 224° |
| 2026-04-24 09:26 | 62.24270 | 34.79792 | 37583 ft | 467 kts | 224° |
| 2026-04-24 09:26 | 62.19321 | 34.70776 | 37561 ft | 467 kts | 224° |
| 2026-04-24 09:27 | 62.14366 | 34.61762 | 37566 ft | 468 kts | 224° |
| 2026-04-24 09:27 | 62.09401 | 34.52777 | 37585 ft | 468 kts | 224° |
| 2026-04-24 09:28 | 62.04416 | 34.43810 | 37604 ft | 469 kts | 224° |
| 2026-04-24 09:28 | 61.99429 | 34.34862 | 37618 ft | 469 kts | 224° |
| 2026-04-24 09:29 | 61.94433 | 34.25947 | 37592 ft | 469 kts | 224° |
| 2026-04-24 09:29 | 61.89445 | 34.17012 | 37584 ft | 468 kts | 228° |
| 2026-04-24 09:30 | 61.85332 | 34.06542 | 37567 ft | 461 kts | 238° |
| 2026-04-24 09:30 | 61.81464 | 33.95700 | 37575 ft | 462 kts | 238° |
| 2026-04-24 09:31 | 61.77576 | 33.84890 | 37582 ft | 462 kts | 237° |
| 2026-04-24 09:31 | 61.73672 | 33.74091 | 37580 ft | 463 kts | 238° |
| 2026-04-24 09:32 | 61.69759 | 33.63298 | 37592 ft | 464 kts | 238° |
| 2026-04-24 09:32 | 61.65826 | 33.52524 | 37602 ft | 464 kts | 237° |
| 2026-04-24 09:33 | 61.61902 | 33.41843 | 37614 ft | 464 kts | 237° |
| 2026-04-24 09:33 | 61.57943 | 33.31126 | 37616 ft | 464 kts | 237° |
| 2026-04-24 09:34 | 61.53971 | 33.20442 | 37286 ft | 464 kts | 238° |
| 2026-04-24 09:34 | 61.51991 | 33.15083 | 37032 ft | 464 kts | 238° |
| 2026-04-24 09:34 | 61.50013 | 33.09742 | 36774 ft | 464 kts | 238° |
| 2026-04-24 09:35 | 61.48701 | 33.06205 | 36605 ft | 464 kts | 238° |
| 2026-04-24 09:35 | 61.46572 | 33.01091 | 36353 ft | 470 kts | 230° |
| 2026-04-24 09:35 | 61.44212 | 32.96333 | 36117 ft | 472 kts | 230° |
| 2026-04-24 09:35 | 61.41839 | 32.91579 | 35873 ft | 472 kts | 230° |
| 2026-04-24 09:36 | 61.39463 | 32.86834 | 35641 ft | 473 kts | 230° |
| 2026-04-24 09:36 | 61.37084 | 32.82094 | 35403 ft | 472 kts | 231° |
| 2026-04-24 09:36 | 61.34707 | 32.77375 | 35137 ft | 469 kts | 231° |
| 2026-04-24 09:36 | 61.32348 | 32.72694 | 34580 ft | 467 kts | 232° |
| 2026-04-24 09:37 | 61.29857 | 32.68309 | 34088 ft | 474 kts | 224° |
| 2026-04-24 09:37 | 61.26987 | 32.64752 | 33529 ft | 486 kts | 213° |
| 2026-04-24 09:37 | 61.23795 | 32.62253 | 32965 ft | 494 kts | 201° |
| 2026-04-24 09:37 | 61.20397 | 32.60928 | 32425 ft | 500 kts | 189° |
| 2026-04-24 09:38 | 61.16975 | 32.60448 | 31889 ft | 499 kts | 188° |
| 2026-04-24 09:38 | 61.13514 | 32.59985 | 31361 ft | 498 kts | 188° |
| 2026-04-24 09:38 | 61.10062 | 32.59508 | 30835 ft | 496 kts | 188° |
| 2026-04-24 09:38 | 61.06614 | 32.59027 | 30311 ft | 495 kts | 188° |
| 2026-04-24 09:39 | 61.03177 | 32.58553 | 29796 ft | 494 kts | 189° |
| 2026-04-24 09:39 | 60.99751 | 32.58085 | 29227 ft | 492 kts | 188° |
| 2026-04-24 09:39 | 60.96360 | 32.57628 | 28844 ft | 486 kts | 189° |
| 2026-04-24 09:39 | 60.92997 | 32.57165 | 28399 ft | 483 kts | 189° |
| 2026-04-24 09:40 | 60.89656 | 32.56688 | 27979 ft | 479 kts | 189° |
| 2026-04-24 09:40 | 60.86340 | 32.56200 | 27598 ft | 476 kts | 189° |
| 2026-04-24 09:40 | 60.83041 | 32.55710 | 27103 ft | 475 kts | 188° |
| 2026-04-24 09:40 | 60.79755 | 32.55227 | 26693 ft | 472 kts | 188° |
| 2026-04-24 09:41 | 60.76488 | 32.54758 | 26245 ft | 469 kts | 188° |
| 2026-04-24 09:41 | 60.73239 | 32.54297 | 25799 ft | 467 kts | 189° |
| 2026-04-24 09:41 | 60.70053 | 32.53364 | 25355 ft | 460 kts | 197° |
| 2026-04-24 09:41 | 60.66918 | 32.52157 | 24901 ft | 458 kts | 197° |
| 2026-04-24 09:42 | 60.63794 | 32.50946 | 24426 ft | 456 kts | 197° |
| 2026-04-24 09:42 | 60.60677 | 32.49746 | 23946 ft | 455 kts | 196° |
| 2026-04-24 09:42 | 60.57605 | 32.48577 | 23471 ft | 454 kts | 196° |
| 2026-04-24 09:42 | 60.54501 | 32.47403 | 22942 ft | 454 kts | 196° |
| 2026-04-24 09:43 | 60.51408 | 32.46236 | 22452 ft | 450 kts | 195° |
| 2026-04-24 09:43 | 60.48344 | 32.45083 | 22070 ft | 445 kts | 195° |
| 2026-04-24 09:43 | 60.45316 | 32.43943 | 21567 ft | 442 kts | 195° |
| 2026-04-24 09:43 | 60.42319 | 32.42814 | 21249 ft | 434 kts | 195° |
| 2026-04-24 09:44 | 60.39360 | 32.41698 | 20788 ft | 431 kts | 195° |
| 2026-04-24 09:44 | 60.36431 | 32.40591 | 20259 ft | 428 kts | 195° |
| 2026-04-24 09:44 | 60.33510 | 32.39492 | 19902 ft | 422 kts | 195° |
| 2026-04-24 09:44 | 60.30640 | 32.38422 | 19494 ft | 418 kts | 195° |
| 2026-04-24 09:45 | 60.27790 | 32.37362 | 19099 ft | 414 kts | 195° |
| 2026-04-24 09:45 | 60.24978 | 32.36315 | 18670 ft | 408 kts | 195° |
| 2026-04-24 09:45 | 60.22206 | 32.35285 | 18172 ft | 402 kts | 194° |
| 2026-04-24 09:45 | 60.19475 | 32.34277 | 17672 ft | 394 kts | 194° |
| 2026-04-24 09:46 | 60.16806 | 32.33296 | 17139 ft | 386 kts | 194° |
| 2026-04-24 09:46 | 60.14185 | 32.32331 | 16845 ft | 379 kts | 194° |
| 2026-04-24 09:46 | 60.11650 | 32.31383 | 16688 ft | 360 kts | 197° |
| 2026-04-24 09:46 | 60.09367 | 32.29842 | 16478 ft | 336 kts | 212° |
| 2026-04-24 09:47 | 60.07439 | 32.27436 | 16008 ft | 319 kts | 226° |
| 2026-04-24 09:47 | 60.05894 | 32.24368 | 15448 ft | 308 kts | 239° |
| 2026-04-24 09:47 | 60.04762 | 32.20853 | 15069 ft | 291 kts | 251° |
| 2026-04-24 09:47 | 60.04039 | 32.17300 | 14898 ft | 271 kts | 259° |
| 2026-04-24 09:48 | 60.03434 | 32.13769 | 14530 ft | 266 kts | 259° |
| 2026-04-24 09:48 | 60.02839 | 32.10299 | 14111 ft | 263 kts | 259° |
| 2026-04-24 09:48 | 60.02248 | 32.06854 | 13668 ft | 261 kts | 258° |
| 2026-04-24 09:48 | 60.01660 | 32.03436 | 13268 ft | 259 kts | 258° |
| 2026-04-24 09:49 | 60.01077 | 32.00039 | 12910 ft | 259 kts | 258° |
| 2026-04-24 09:49 | 60.00493 | 31.96631 | 12587 ft | 259 kts | 258° |
| 2026-04-24 09:49 | 59.99909 | 31.93230 | 12267 ft | 259 kts | 257° |
| 2026-04-24 09:49 | 59.99329 | 31.89867 | 12062 ft | 254 kts | 257° |
| 2026-04-24 09:50 | 59.98751 | 31.86512 | 11741 ft | 253 kts | 257° |
| 2026-04-24 09:50 | 59.98178 | 31.83202 | 11383 ft | 255 kts | 257° |
| 2026-04-24 09:50 | 59.97605 | 31.79909 | 11145 ft | 248 kts | 256° |
| 2026-04-24 09:50 | 59.97034 | 31.76644 | 10710 ft | 249 kts | 256° |
| 2026-04-24 09:51 | 59.96468 | 31.73407 | 10375 ft | 245 kts | 256° |
| 2026-04-24 09:51 | 59.95912 | 31.70235 | 10072 ft | 240 kts | 256° |
| 2026-04-24 09:51 | 59.95365 | 31.67107 | 9771 ft | 238 kts | 256° |
| 2026-04-24 09:51 | 59.94825 | 31.64002 | 9483 ft | 236 kts | 255° |
| 2026-04-24 09:52 | 59.94286 | 31.60912 | 9162 ft | 235 kts | 255° |
| 2026-04-24 09:52 | 59.93747 | 31.57843 | 8869 ft | 233 kts | 255° |
| 2026-04-24 09:52 | 59.93211 | 31.54796 | 8547 ft | 233 kts | 255° |
| 2026-04-24 09:52 | 59.92672 | 31.51731 | 8280 ft | 236 kts | 255° |
| 2026-04-24 09:53 | 59.92127 | 31.48648 | 7997 ft | 236 kts | 255° |
| 2026-04-24 09:53 | 59.91581 | 31.45572 | 7706 ft | 235 kts | 255° |
| 2026-04-24 09:53 | 59.91034 | 31.42507 | 7416 ft | 234 kts | 255° |
| 2026-04-24 09:53 | 59.90489 | 31.39452 | 7126 ft | 234 kts | 255° |
| 2026-04-24 09:54 | 59.89948 | 31.36404 | 6845 ft | 234 kts | 255° |
| 2026-04-24 09:54 | 59.89405 | 31.33350 | 6552 ft | 233 kts | 255° |
| 2026-04-24 09:54 | 59.88861 | 31.30319 | 6270 ft | 232 kts | 255° |
| 2026-04-24 09:54 | 59.88319 | 31.27300 | 5971 ft | 231 kts | 255° |
| 2026-04-24 09:55 | 59.87782 | 31.24316 | 5912 ft | 229 kts | 255° |
| 2026-04-24 09:55 | 59.87243 | 31.21320 | 5813 ft | 230 kts | 255° |
| 2026-04-24 09:55 | 59.86627 | 31.18381 | 5685 ft | 233 kts | 243° |
| 2026-04-24 09:55 | 59.85555 | 31.15942 | 5656 ft | 239 kts | 222° |
| 2026-04-24 09:56 | 59.84095 | 31.14361 | 5658 ft | 245 kts | 206° |
| 2026-04-24 09:56 | 59.82515 | 31.13072 | 5659 ft | 245 kts | 206° |
| 2026-04-24 09:56 | 59.80939 | 31.11777 | 5656 ft | 245 kts | 206° |
| 2026-04-24 09:56 | 59.79365 | 31.10478 | 5659 ft | 246 kts | 207° |
| 2026-04-24 09:57 | 59.77785 | 31.09170 | 5662 ft | 246 kts | 207° |
| 2026-04-24 09:57 | 59.76198 | 31.07901 | 5655 ft | 247 kts | 201° |
| 2026-04-24 09:57 | 59.74499 | 31.07280 | 5664 ft | 250 kts | 189° |
| 2026-04-24 09:57 | 59.72772 | 31.06931 | 5664 ft | 250 kts | 189° |
| 2026-04-24 09:58 | 59.71051 | 31.06586 | 5653 ft | 248 kts | 189° |
| 2026-04-24 09:58 | 59.69333 | 31.06242 | 5662 ft | 248 kts | 189° |
| 2026-04-24 09:58 | 59.67664 | 31.05518 | 5665 ft | 244 kts | 205° |
| 2026-04-24 09:58 | 59.66154 | 31.04051 | 5668 ft | 242 kts | 213° |
| 2026-04-24 09:59 | 59.64675 | 31.02487 | 5666 ft | 241 kts | 212° |
| 2026-04-24 09:59 | 59.63194 | 31.00929 | 5667 ft | 242 kts | 212° |
| 2026-04-24 09:59 | 59.61713 | 30.99360 | 5664 ft | 241 kts | 214° |
| 2026-04-24 09:59 | 59.60427 | 30.97317 | 5659 ft | 235 kts | 232° |
| 2026-04-24 10:00 | 59.59388 | 30.94842 | 5660 ft | 233 kts | 237° |
| 2026-04-24 10:00 | 59.58734 | 30.92007 | 5657 ft | 226 kts | 264° |
| 2026-04-24 10:00 | 59.58797 | 30.88981 | 5659 ft | 220 kts | 289° |
| 2026-04-24 10:00 | 59.59523 | 30.86363 | 5516 ft | 218 kts | 314° |
| 2026-04-24 10:01 | 59.60754 | 30.84672 | 5325 ft | 217 kts | 337° |
| 2026-04-24 10:01 | 59.62223 | 30.83961 | 5151 ft | 218 kts | 346° |
| 2026-04-24 10:01 | 59.63704 | 30.83360 | 4974 ft | 217 kts | 346° |
| 2026-04-24 10:01 | 59.65179 | 30.82754 | 4799 ft | 216 kts | 346° |
| 2026-04-24 10:02 | 59.66645 | 30.82147 | 4621 ft | 214 kts | 345° |
| 2026-04-24 10:02 | 59.68096 | 30.81544 | 4445 ft | 213 kts | 346° |
| 2026-04-24 10:02 | 59.69541 | 30.80949 | 4276 ft | 212 kts | 346° |
| 2026-04-24 10:02 | 59.70983 | 30.80354 | 4105 ft | 211 kts | 345° |
| 2026-04-24 10:03 | 59.72417 | 30.79757 | 3943 ft | 211 kts | 345° |
| 2026-04-24 10:03 | 59.73827 | 30.79171 | 3761 ft | 209 kts | 345° |
| 2026-04-24 10:03 | 59.75253 | 30.78573 | 3599 ft | 209 kts | 345° |
| 2026-04-24 10:03 | 59.76668 | 30.77939 | 3431 ft | 207 kts | 340° |
| 2026-04-24 10:04 | 59.77868 | 30.76448 | 3267 ft | 205 kts | 314° |
| 2026-04-24 10:04 | 59.78570 | 30.74006 | 3224 ft | 207 kts | 288° |
| 2026-04-24 10:04 | 59.78630 | 30.71120 | 3156 ft | 215 kts | 262° |
| 2026-04-24 10:04 | 59.78027 | 30.68376 | 2968 ft | 220 kts | 246° |
| 2026-04-24 10:05 | 59.77309 | 30.65773 | 2838 ft | 206 kts | 246° |
| 2026-04-24 10:05 | 59.76653 | 30.63415 | 2773 ft | 185 kts | 247° |
| 2026-04-24 10:05 | 59.76066 | 30.61300 | 2667 ft | 163 kts | 248° |
| 2026-04-24 10:05 | 59.75566 | 30.59502 | 2600 ft | 138 kts | 249° |
| 2026-04-24 10:06 | 59.75152 | 30.57852 | 2536 ft | 129 kts | 258° |
| 2026-04-24 10:06 | 59.75194 | 30.54559 | 2511 ft | 123 kts | 287° |
| 2026-04-24 10:06 | 59.75390 | 30.52913 | 2511 ft | 123 kts | 289° |
| 2026-04-24 10:07 | 59.75609 | 30.51275 | 2446 ft | 123 kts | 290° |
| 2026-04-24 10:07 | 59.75839 | 30.49653 | 2333 ft | 122 kts | 290° |
| 2026-04-24 10:07 | 59.76074 | 30.48040 | 2194 ft | 122 kts | 290° |
| 2026-04-24 10:07 | 59.76315 | 30.46419 | 2025 ft | 123 kts | 290° |
| 2026-04-24 10:08 | 59.76557 | 30.44798 | 1864 ft | 122 kts | 291° |
| 2026-04-24 10:08 | 59.76798 | 30.43192 | 1698 ft | 121 kts | 291° |
| 2026-04-24 10:08 | 59.77038 | 30.41594 | 1533 ft | 121 kts | 291° |
| 2026-04-24 10:08 | 59.77276 | 30.40008 | 1366 ft | 121 kts | 291° |
| 2026-04-24 10:09 | 59.77518 | 30.38394 | 1192 ft | 120 kts | 291° |
| 2026-04-24 10:09 | 59.77758 | 30.36801 | 1020 ft | 121 kts | 291° |
| 2026-04-24 10:09 | 59.77995 | 30.35220 | 864 ft | 120 kts | 290° |
| 2026-04-24 10:09 | 59.78232 | 30.33633 | 685 ft | 119 kts | 290° |
| 2026-04-24 10:10 | 59.78470 | 30.32043 | 520 ft | 121 kts | 290° |
| 2026-04-24 10:10 | 59.78720 | 30.30408 | 351 ft | 124 kts | 288° |
| 2026-04-24 10:10 | 59.78960 | 30.28794 | 174 ft | 119 kts | 287° |
| 2026-04-24 10:10 | 59.79191 | 30.27265 | 87 ft | 100 kts | 287° |
| 2026-04-24 10:11 | 59.79299 | 30.26511 | 84 ft | 21 kts | 286° |
| 2026-04-24 10:11 | 59.79375 | 30.26372 | 84 ft | 15 kts | 14° |
| 2026-04-24 10:11 | 59.79438 | 30.26413 | 84 ft | 0 kts | 15° |
| 2026-04-24 10:12 | 59.79440 | 30.26414 | 84 ft | 1 kts | 15° |
| 2026-04-24 10:12 | 59.79482 | 30.26399 | 85 ft | 9 kts | 334° |
| 2026-04-24 10:12 | 59.79539 | 30.26364 | 84 ft | 10 kts | 18° |
| 2026-04-24 10:12 | 59.79609 | 30.26409 | 84 ft | 11 kts | 17° |
| 2026-04-24 10:13 | 59.79660 | 30.26481 | 86 ft | 9 kts | 87° |
| 2026-04-24 10:13 | 59.79648 | 30.26591 | 84 ft | 3 kts | 108° |
| 2026-04-24 10:13 | 59.79645 | 30.26612 | 84 ft | 0 kts | 108° |